Time;durP1;ratioP1;P1;durP2;ratioP2;P2;SDS_P1;SDS_P2;PMS_P1;PMS_P2;Temp;Humidity;BMP_temperature;BMP_pressure;BME280_temperature;BME280_humidity;BME280_pressure;Samples;Min_cycle;Max_cycle;Signal;HPM_P1;HPM_P2
2022/01/17 00:00:38;;;;;;;1999.90;999.90;;;;;;;0.29;63.54;101791.19;4850455;28;98818;-69
2022/01/17 00:03:06;;;;;;;1999.90;999.90;;;;;;;0.30;64.01;101791.34;4834424;28;98985;-68
2022/01/17 00:05:34;;;;;;;1999.90;999.90;;;;;;;0.31;64.15;101802.69;4831050;28;98207;-69
2022/01/17 00:08:03;;;;;;;1999.90;999.90;;;;;;;0.30;64.35;101806.13;4832089;28;96680;-68
2022/01/17 00:10:30;;;;;;;1999.90;999.90;;;;;;;0.34;63.86;101792.50;4857636;28;100955;-69
2022/01/17 00:12:59;;;;;;;1999.90;999.90;;;;;;;0.35;64.09;101807.38;4832725;28;99219;-69
2022/01/17 00:15:32;;;;;;;1999.90;999.90;;;;;;;0.36;63.78;101801.38;4835583;28;96938;-69
2022/01/17 00:18:24;;;;;;;1999.90;999.90;;;;;;;0.37;63.72;101798.88;4828955;28;98694;-68
2022/01/17 00:20:52;;;;;;;1999.90;999.90;;;;;;;0.36;63.68;101785.69;4827560;28;99735;-69
2022/01/17 00:23:21;;;;;;;1999.90;999.90;;;;;;;0.36;63.55;101780.44;4829633;28;97663;-69
2022/01/17 00:25:49;;;;;;;1999.90;999.90;;;;;;;0.40;63.61;101766.75;4835464;28;97241;-69
2022/01/17 00:28:16;;;;;;;1999.90;999.90;;;;;;;0.40;63.66;101782.47;4834285;28;97914;-69
2022/01/17 00:30:44;;;;;;;1999.90;999.90;;;;;;;0.38;63.70;101779.75;4835042;28;99936;-69
2022/01/17 00:33:12;;;;;;;1999.90;999.90;;;;;;;0.38;63.99;101763.09;4838881;28;97845;-68
2022/01/17 00:35:40;;;;;;;1999.90;999.90;;;;;;;0.41;63.29;101784.31;4838821;28;98429;-69
2022/01/17 00:38:11;;;;;;;1999.90;999.90;;;;;;;0.44;63.15;101792.41;4854057;28;97995;-69
2022/01/17 00:40:40;;;;;;;1999.90;999.90;;;;;;;0.46;63.19;101777.72;4846560;28;100742;-69
2022/01/17 00:43:09;;;;;;;1999.90;999.90;;;;;;;0.48;63.10;101787.53;4835927;28;100470;-69
2022/01/17 00:45:38;;;;;;;1999.90;999.90;;;;;;;0.50;63.36;101779.78;4836839;28;96963;-69
2022/01/17 00:48:06;;;;;;;1999.90;999.90;;;;;;;0.51;63.24;101792.06;4835360;28;97186;-69
2022/01/17 00:50:37;;;;;;;1999.90;999.90;;;;;;;0.52;63.44;101781.72;4838156;28;97740;-69
2022/01/17 00:53:06;;;;;;;1999.90;999.90;;;;;;;0.51;63.07;101766.81;4837652;28;98093;-69
2022/01/17 00:55:34;;;;;;;1999.90;999.90;;;;;;;0.54;62.74;101772.25;4846251;28;96898;-69
2022/01/17 00:58:04;;;;;;;1999.90;999.90;;;;;;;0.53;63.01;101777.38;4860827;28;97158;-69
2022/01/17 01:00:32;;;;;;;1999.90;999.90;;;;;;;0.53;62.80;101780.00;4842799;28;99580;-69
2022/01/17 01:03:00;;;;;;;1999.90;999.90;;;;;;;0.52;62.84;101765.09;4843268;28;97721;-69
2022/01/17 01:05:29;;;;;;;1999.90;999.90;;;;;;;0.52;62.56;101760.75;4835032;28;98537;-68
2022/01/17 01:07:56;;;;;;;1999.90;999.90;;;;;;;0.50;63.13;101751.91;4833546;28;97248;-70
2022/01/17 01:10:24;;;;;;;1999.90;999.90;;;;;;;0.51;62.58;101744.94;4835451;28;98774;-69
2022/01/17 01:12:53;;;;;;;1999.90;999.90;;;;;;;0.50;62.52;101749.28;4830190;28;99411;-69
2022/01/17 01:15:34;;;;;;;1999.90;999.90;;;;;;;0.51;63.20;101737.09;4830674;28;96957;-68
2022/01/17 01:18:12;;;;;;;1999.90;999.90;;;;;;;0.49;62.68;101736.97;4832532;28;98575;-68
2022/01/17 01:21:03;;;;;;;1999.90;999.90;;;;;;;0.54;62.87;101730.38;4833540;28;97453;-68
2022/01/17 01:28:57;;;;;;;1999.90;999.90;;;;;;;0.51;62.97;101743.25;4847898;28;99414;-68
2022/01/17 01:31:39;;;;;;;1999.90;999.90;;;;;;;0.55;62.66;101736.53;4832818;28;99683;-68
2022/01/17 01:34:08;;;;;;;1999.90;999.90;;;;;;;0.56;63.12;101727.91;4834384;28;99352;-68
2022/01/17 01:36:36;;;;;;;1999.90;999.90;;;;;;;0.58;63.01;101731.50;4834095;28;96803;-68
2022/01/17 01:39:05;;;;;;;1999.90;999.90;;;;;;;0.59;62.83;101722.88;4832792;28;96881;-68
2022/01/17 01:41:40;;;;;;;1999.90;999.90;;;;;;;0.62;62.99;101738.81;4833658;28;98962;-68
2022/01/17 01:44:11;;;;;;;1999.90;999.90;;;;;;;0.62;62.77;101744.06;4842096;28;99352;-68
2022/01/17 01:46:41;;;;;;;1999.90;999.90;;;;;;;0.64;63.14;101745.09;4831533;28;96994;-68
2022/01/17 01:49:09;;;;;;;1999.90;999.90;;;;;;;0.63;62.60;101727.56;4833569;28;97447;-68
2022/01/17 01:51:36;;;;;;;1999.90;999.90;;;;;;;0.63;63.21;101717.97;4842021;28;99742;-68
2022/01/17 01:54:07;;;;;;;1999.90;999.90;;;;;;;0.65;63.00;101733.84;4857457;28;98916;-68
2022/01/17 01:56:36;;;;;;;1999.90;999.90;;;;;;;0.66;63.14;101735.63;4833227;28;97187;-68
2022/01/17 01:59:04;;;;;;;1999.90;999.90;;;;;;;0.71;62.72;101735.19;4835879;28;97525;-68
2022/01/17 02:01:32;;;;;;;1999.90;999.90;;;;;;;0.72;62.47;101730.88;4833049;28;98127;-68
2022/01/17 02:04:02;;;;;;;1999.90;999.90;;;;;;;0.73;62.17;101730.06;4835545;28;99183;-68
2022/01/17 02:06:29;;;;;;;1999.90;999.90;;;;;;;0.75;61.96;101736.34;4833016;28;97174;-68
2022/01/17 02:08:57;;;;;;;1999.90;999.90;;;;;;;0.74;62.30;101724.94;4861166;28;97451;-69
2022/01/17 02:11:25;;;;;;;1999.90;999.90;;;;;;;0.76;62.52;101751.22;4842861;28;98434;-68
2022/01/17 02:13:53;;;;;;;1999.90;999.90;;;;;;;0.73;61.93;101744.06;4831594;28;101142;-68
2022/01/17 02:16:23;;;;;;;1999.90;999.90;;;;;;;0.75;62.65;101757.28;4831165;28;96911;-68
2022/01/17 02:18:51;;;;;;;1999.90;999.90;;;;;;;0.72;62.87;101762.31;4839485;28;98294;-68
2022/01/17 02:21:32;;;;;;;1999.90;999.90;;;;;;;0.73;62.39;101746.69;4831966;28;100463;-69
2022/01/17 02:24:01;;;;;;;1999.90;999.90;;;;;;;0.74;62.57;101743.25;4834532;28;97612;-68
2022/01/17 02:26:29;;;;;;;1999.90;999.90;;;;;;;0.67;62.37;101754.09;4832757;28;97153;-68
2022/01/17 02:28:58;;;;;;;1999.90;999.90;;;;;;;0.73;62.79;101754.56;4831291;28;100124;-68
2022/01/17 02:31:27;;;;;;;1999.90;999.90;;;;;;;0.74;62.22;101737.13;4830415;28;98897;-68
2022/01/17 02:33:55;;;;;;;1999.90;999.90;;;;;;;0.76;62.59;101736.44;4832759;28;97760;-68
2022/01/17 02:36:24;;;;;;;1999.90;999.90;;;;;;;0.72;62.38;101737.00;4840285;28;97646;-68
2022/01/17 02:38:52;;;;;;;1999.90;999.90;;;;;;;0.74;62.17;101738.03;4832644;28;97429;-68
2022/01/17 02:41:20;;;;;;;1999.90;999.90;;;;;;;0.77;61.99;101729.50;4828200;28;100974;-69
2022/01/17 02:43:48;;;;;;;1999.90;999.90;;;;;;;0.73;61.43;101725.75;4830038;28;98046;-68
2022/01/17 02:46:25;;;;;;;1999.90;999.90;;;;;;;0.76;61.81;101702.38;4834226;28;98547;-68
2022/01/17 02:48:54;;;;;;;1999.90;999.90;;;;;;;0.73;61.56;101709.09;4832401;28;97407;-71
2022/01/17 02:51:25;;;;;;;1999.90;999.90;;;;;;;0.74;61.50;101724.03;4830372;28;98438;-68
2022/01/17 02:53:53;;;;;;;1999.90;999.90;;;;;;;0.72;60.81;101730.88;4830357;28;98965;-68
2022/01/17 02:56:21;;;;;;;1999.90;999.90;;;;;;;0.68;61.06;101713.09;4833780;28;98547;-68
2022/01/17 02:58:49;;;;;;;1999.90;999.90;;;;;;;0.70;61.23;101721.97;4831502;28;98291;-68
2022/01/17 03:01:19;;;;;;;1999.90;999.90;;;;;;;0.64;60.03;101716.28;4843620;28;99338;-68
2022/01/17 03:03:47;;;;;;;1999.90;999.90;;;;;;;0.60;59.01;101735.16;4853698;28;98785;-68
2022/01/17 03:06:16;;;;;;;1999.90;999.90;;;;;;;0.61;60.37;101716.06;4829534;28;98416;-68
2022/01/17 03:08:46;;;;;;;1999.90;999.90;;;;;;;0.58;60.13;101705.31;4842340;28;99193;-68
2022/01/17 03:11:16;;;;;;;1999.90;999.90;;;;;;;0.58;59.78;101690.53;4832651;28;98955;-68
2022/01/17 03:13:45;;;;;;;1999.90;999.90;;;;;;;0.59;59.83;101704.53;4838873;28;97564;-68
2022/01/17 03:16:15;;;;;;;1999.90;999.90;;;;;;;0.60;59.75;101708.97;4832471;28;99007;-68
2022/01/17 03:18:44;;;;;;;1999.90;999.90;;;;;;;0.59;59.65;101709.78;4833424;28;98641;-68
2022/01/17 03:21:15;;;;;;;1999.90;999.90;;;;;;;0.59;59.86;101701.94;4828108;28;101299;-68
2022/01/17 03:23:44;;;;;;;1999.90;999.90;;;;;;;0.58;59.99;101700.09;4832020;28;100754;-68
2022/01/17 03:26:12;;;;;;;1999.90;999.90;;;;;;;0.59;59.99;101702.84;4832093;28;96752;-68
2022/01/17 03:28:40;;;;;;;1999.90;999.90;;;;;;;0.57;59.12;101701.81;4829282;28;98452;-69
2022/01/17 03:31:10;;;;;;;1999.90;999.90;;;;;;;0.57;59.47;101656.38;4832097;28;97703;-68
2022/01/17 03:33:38;;;;;;;1999.90;999.90;;;;;;;0.53;58.48;101655.25;4831197;28;99652;-68
2022/01/17 03:36:06;;;;;;;1999.90;999.90;;;;;;;0.51;58.68;101666.38;4829433;28;96966;-68
2022/01/17 03:38:35;;;;;;;1999.90;999.90;;;;;;;0.50;59.35;101669.81;4834434;28;97077;-68
2022/01/17 03:41:05;;;;;;;1999.90;999.90;;;;;;;0.48;59.32;101666.16;4854842;28;101090;-68
2022/01/17 03:43:33;;;;;;;1999.90;999.90;;;;;;;0.45;59.72;101652.84;4834248;28;97603;-69
2022/01/17 03:46:01;;;;;;;1999.90;999.90;;;;;;;0.43;59.71;101667.53;4830391;28;97372;-69
2022/01/17 03:48:31;;;;;;;1999.90;999.90;;;;;;;0.42;59.70;101669.22;4834132;28;97251;-67
2022/01/17 03:51:00;;;;;;;1999.90;999.90;;;;;;;0.41;59.74;101674.34;4832209;28;97384;-68
2022/01/17 03:53:28;;;;;;;1999.90;999.90;;;;;;;0.37;59.46;101640.88;4831128;28;98937;-68
2022/01/17 03:55:56;;;;;;;1999.90;999.90;;;;;;;0.30;58.89;101628.13;4831962;28;98322;-68
2022/01/17 03:58:27;;;;;;;1999.90;999.90;;;;;;;0.33;59.31;101641.44;4854880;28;98182;-68
2022/01/17 04:00:56;;;;;;;1999.90;999.90;;;;;;;0.29;59.34;101649.84;4836440;28;100659;-68
2022/01/17 04:03:25;;;;;;;1999.90;999.90;;;;;;;0.28;59.83;101656.81;4842933;28;99776;-68
2022/01/17 04:05:53;;;;;;;1999.90;999.90;;;;;;;0.31;59.93;101664.88;4843335;28;96813;-68
2022/01/17 04:08:21;;;;;;;1999.90;999.90;;;;;;;0.29;59.67;101662.94;4841197;28;97415;-68
2022/01/17 04:10:49;;;;;;;1999.90;999.90;;;;;;;0.25;59.85;101645.19;4844323;28;98486;-68
2022/01/17 04:13:17;;;;;;;1999.90;999.90;;;;;;;0.30;59.88;101629.06;4848624;28;99126;-68
2022/01/17 04:15:46;;;;;;;1999.90;999.90;;;;;;;0.25;59.89;101669.66;4863842;28;96846;-68
2022/01/17 04:18:16;;;;;;;1999.90;999.90;;;;;;;0.29;60.05;101676.03;4842488;28;97287;-68
2022/01/17 04:20:44;;;;;;;1999.90;999.90;;;;;;;0.31;60.45;101677.97;4840658;28;97735;-68
2022/01/17 04:23:13;;;;;;;1999.90;999.90;;;;;;;0.35;60.31;101685.28;4840668;28;99183;-68
2022/01/17 04:25:42;;;;;;;1999.90;999.90;;;;;;;0.33;60.13;101659.75;4843557;28;96916;-68
2022/01/17 04:28:11;;;;;;;1999.90;999.90;;;;;;;0.31;59.68;101666.59;4846237;28;96844;-69
2022/01/17 04:30:40;;;;;;;1999.90;999.90;;;;;;;0.31;60.20;101683.22;4844210;28;97921;-68
2022/01/17 04:33:10;;;;;;;1999.90;999.90;;;;;;;0.30;59.79;101665.69;4841538;28;97260;-68
2022/01/17 04:35:39;;;;;;;1999.90;999.90;;;;;;;0.26;60.00;101668.88;4840310;28;98398;-68
2022/01/17 04:38:08;;;;;;;1999.90;999.90;;;;;;;0.26;59.78;101679.34;4844834;28;98451;-68
2022/01/17 04:40:38;;;;;;;1999.90;999.90;;;;;;;0.24;60.01;101691.41;4838657;28;100819;-68
2022/01/17 04:43:15;;;;;;;1999.90;999.90;;;;;;;0.27;59.92;101686.38;4839440;28;99469;-68
2022/01/17 04:45:43;;;;;;;1999.90;999.90;;;;;;;0.27;60.01;101696.84;4841607;28;97868;-68
2022/01/17 04:48:13;;;;;;;1999.90;999.90;;;;;;;0.26;59.79;101720.28;4845150;28;98873;-68
2022/01/17 04:50:41;;;;;;;1999.90;999.90;;;;;;;0.28;60.14;101690.84;4840959;28;99703;-68
2022/01/17 04:53:11;;;;;;;1999.90;999.90;;;;;;;0.25;59.98;101692.31;4827591;28;99689;-68
2022/01/17 04:55:39;;;;;;;1999.90;999.90;;;;;;;0.31;60.14;101703.22;4841317;28;98008;-68
2022/01/17 04:58:07;;;;;;;1999.90;999.90;;;;;;;0.31;60.08;101705.84;4839765;28;96765;-68
2022/01/17 05:00:34;;;;;;;1999.90;999.90;;;;;;;0.31;60.12;101703.22;4841023;28;100805;-68
2022/01/17 05:03:02;;;;;;;1999.90;999.90;;;;;;;0.31;60.23;101698.00;4842105;28;97003;-68
2022/01/17 05:05:32;;;;;;;1999.90;999.90;;;;;;;0.18;60.20;101711.81;4860699;28;97084;-69
2022/01/17 05:07:59;;;;;;;1999.90;999.90;;;;;;;0.30;60.19;101699.72;4842495;28;97257;-67
2022/01/17 05:10:27;;;;;;;1999.90;999.90;;;;;;;0.28;60.35;101706.53;4841208;28;97761;-68
2022/01/17 05:12:55;;;;;;;1999.90;999.90;;;;;;;0.26;60.77;101696.75;4846942;28;99278;-68
2022/01/17 05:15:31;;;;;;;1999.90;999.90;;;;;;;0.23;60.58;101704.34;4847595;28;102436;-68
2022/01/17 05:18:12;;;;;;;1999.90;999.90;;;;;;;0.18;61.03;101693.50;4840281;28;97588;-68
2022/01/17 05:20:43;;;;;;;1999.90;999.90;;;;;;;0.10;60.75;101699.88;4841203;28;98920;-67
2022/01/17 05:23:11;;;;;;;1999.90;999.90;;;;;;;0.13;61.29;101706.25;4841183;28;99590;-67
2022/01/17 05:25:38;;;;;;;1999.90;999.90;;;;;;;0.15;60.93;101695.88;4839587;28;99481;-67
2022/01/17 05:28:06;;;;;;;1999.90;999.90;;;;;;;0.14;60.93;101699.28;4840462;28;96822;-67
2022/01/17 05:30:34;;;;;;;1999.90;999.90;;;;;;;0.11;61.18;101689.50;4840486;28;97384;-68
2022/01/17 05:33:02;;;;;;;1999.90;999.90;;;;;;;0.11;61.23;101693.81;4836938;28;99491;-68
2022/01/17 05:35:29;;;;;;;1999.90;999.90;;;;;;;0.09;61.42;101691.09;4837129;28;96809;-66
2022/01/17 05:37:58;;;;;;;1999.90;999.90;;;;;;;0.10;60.99;101740.00;4837889;28;96963;-67
2022/01/17 05:40:27;;;;;;;1999.90;999.90;;;;;;;0.11;60.97;101701.66;4838363;28;97595;-69
2022/01/17 05:42:55;;;;;;;1999.90;999.90;;;;;;;0.06;60.87;101705.66;4834854;28;98520;-67
2022/01/17 05:45:23;;;;;;;1999.90;999.90;;;;;;;0.03;61.38;101674.91;4837543;28;97287;-70
2022/01/17 05:47:51;;;;;;;1999.90;999.90;;;;;;;0.01;61.53;101676.50;4839251;28;98642;-68
2022/01/17 05:50:19;;;;;;;1999.90;999.90;;;;;;;-0.04;61.63;101709.25;4836309;28;97268;-70
2022/01/17 05:52:46;;;;;;;1999.90;999.90;;;;;;;0.01;61.15;101683.44;4838228;28;98827;-69
2022/01/17 05:55:16;;;;;;;1999.90;999.90;;;;;;;0.00;61.47;101679.91;4837880;28;97646;-70
2022/01/17 05:57:44;;;;;;;1999.90;999.90;;;;;;;-0.04;61.59;101676.94;4839063;28;98547;-70
2022/01/17 06:00:14;;;;;;;1999.90;999.90;;;;;;;-0.02;61.84;101651.81;4834402;28;97895;-69
2022/01/17 06:02:42;;;;;;;1999.90;999.90;;;;;;;-0.01;61.11;101646.69;4838848;28;97564;-69
2022/01/17 06:05:12;;;;;;;1999.90;999.90;;;;;;;-0.03;61.71;101655.22;4837176;28;97521;-69
2022/01/17 06:07:40;;;;;;;1999.90;999.90;;;;;;;-0.02;61.71;101657.97;4839087;28;97136;-69
2022/01/17 06:10:08;;;;;;;1999.90;999.90;;;;;;;-0.03;61.49;101643.03;4838122;28;97549;-70
2022/01/17 06:12:37;;;;;;;1999.90;999.90;;;;;;;-0.06;61.91;101627.13;4837820;28;98215;-67
2022/01/17 06:15:05;;;;;;;1999.90;999.90;;;;;;;-0.06;61.82;101637.56;4839731;28;97859;-69
2022/01/17 06:17:33;;;;;;;1999.90;999.90;;;;;;;-0.08;61.60;101675.78;4846249;28;98968;-69
2022/01/17 06:20:01;;;;;;;1999.90;999.90;;;;;;;-0.08;61.89;101673.16;4840168;28;97988;-69
2022/01/17 06:22:29;;;;;;;1999.90;999.90;;;;;;;-0.06;61.83;101713.44;4837953;28;99309;-69
2022/01/17 06:24:56;;;;;;;1999.90;999.90;;;;;;;-0.07;62.05;101708.09;4839814;28;97451;-69
2022/01/17 06:27:24;;;;;;;1999.90;999.90;;;;;;;-0.07;61.85;101682.84;4837977;28;97251;-69
2022/01/17 06:29:53;;;;;;;1999.90;999.90;;;;;;;-0.08;61.82;101675.78;4840635;28;99321;-69
2022/01/17 06:32:21;;;;;;;1999.90;999.90;;;;;;;-0.05;61.80;101670.81;4839352;28;99727;-70
2022/01/17 06:34:53;;;;;;;1999.90;999.90;;;;;;;-0.08;61.57;101660.09;4835634;28;97124;-69
2022/01/17 06:37:22;;;;;;;1999.90;999.90;;;;;;;-0.06;62.03;101631.41;4838061;28;98116;-69
2022/01/17 06:39:51;;;;;;;1999.90;999.90;;;;;;;-0.06;61.77;101613.09;4836808;28;99646;-70
2022/01/17 06:42:19;;;;;;;1999.90;999.90;;;;;;;-0.10;61.78;101611.97;4837840;28;98791;-69
2022/01/17 06:44:47;;;;;;;1999.90;999.90;;;;;;;-0.16;62.23;101629.84;4836852;28;97198;-69
2022/01/17 06:47:16;;;;;;;1999.90;999.90;;;;;;;-0.11;61.98;101633.69;4835644;28;98772;-69
2022/01/17 06:49:44;;;;;;;1999.90;999.90;;;;;;;-0.11;61.60;101644.16;4836011;28;97240;-69
2022/01/17 06:52:12;;;;;;;1999.90;999.90;;;;;;;-0.10;62.17;101645.97;4836037;28;98650;-69
2022/01/17 06:54:39;;;;;;;1999.90;999.90;;;;;;;-0.06;61.58;101665.44;4837528;28;96868;-68
2022/01/17 06:57:07;;;;;;;1999.90;999.90;;;;;;;-0.04;61.88;101683.09;4838814;28;96942;-69
2022/01/17 06:59:35;;;;;;;1999.90;999.90;;;;;;;0.01;61.71;101681.72;4837828;28;97164;-69
2022/01/17 07:02:03;;;;;;;1999.90;999.90;;;;;;;-0.03;61.84;101689.22;4823125;29;98714;-69
2022/01/17 07:04:32;;;;;;;1999.90;999.90;;;;;;;-0.05;61.85;101681.28;4847692;28;97974;-69
2022/01/17 07:07:01;;;;;;;1999.90;999.90;;;;;;;-0.03;61.74;101682.28;4840045;28;96705;-69
2022/01/17 07:09:29;;;;;;;1999.90;999.90;;;;;;;-0.03;61.47;101703.19;4840817;28;98060;-69
2022/01/17 07:11:58;;;;;;;1999.90;999.90;;;;;;;0.03;61.65;101710.63;4843180;28;97629;-69
2022/01/17 07:14:27;;;;;;;1999.90;999.90;;;;;;;0.06;61.38;101727.47;4836874;28;96853;-69
2022/01/17 07:16:54;;;;;;;1999.90;999.90;;;;;;;0.09;61.19;101708.50;4839101;28;97638;-70
2022/01/17 07:19:23;;;;;;;1999.90;999.90;;;;;;;0.09;61.19;101701.56;4839599;28;98003;-69
2022/01/17 07:21:52;;;;;;;1999.90;999.90;;;;;;;0.08;61.13;101670.94;4845398;28;97723;-69
2022/01/17 07:24:38;;;;;;;1999.90;999.90;;;;;;;0.14;61.27;101640.00;4830142;28;97272;-69
2022/01/17 07:27:06;;;;;;;1999.90;999.90;;;;;;;0.09;61.43;101662.31;4832369;28;97136;-69
2022/01/17 07:29:34;;;;;;;1999.90;999.90;;;;;;;0.10;61.64;101661.50;4830680;28;100495;-69
2022/01/17 07:32:01;;;;;;;1999.90;999.90;;;;;;;0.16;61.08;101635.81;4833821;28;97629;-70
2022/01/17 07:34:29;;;;;;;1999.90;999.90;;;;;;;0.14;61.31;101646.94;4843945;28;97885;-69
2022/01/17 07:36:59;;;;;;;1999.90;999.90;;;;;;;0.12;61.60;101706.09;4834064;28;97362;-69
2022/01/17 07:39:27;;;;;;;1999.90;999.90;;;;;;;0.07;61.54;101634.19;4812996;28;99775;-70
2022/01/17 07:41:55;;;;;;;1999.90;999.90;;;;;;;0.12;61.77;101665.16;4841576;28;99217;-69
2022/01/17 07:44:25;;;;;;;1999.90;999.90;;;;;;;0.11;61.19;101654.56;4832053;28;97576;-69
2022/01/17 07:46:55;;;;;;;1999.90;999.90;;;;;;;0.14;61.42;101666.19;4833478;28;96867;-69
2022/01/17 07:49:23;;;;;;;1999.90;999.90;;;;;;;0.15;61.40;101665.41;4831633;28;97783;-69
2022/01/17 07:51:59;;;;;;;1999.90;999.90;;;;;;;0.17;61.57;101675.97;4841845;28;99297;-69
2022/01/17 07:54:31;;;;;;;1999.90;999.90;;;;;;;0.18;61.77;101697.03;4840824;28;97287;-69
2022/01/17 07:56:59;;;;;;;1999.90;999.90;;;;;;;0.21;61.57;101702.50;4856923;28;97886;-69
2022/01/17 07:59:28;;;;;;;1999.90;999.90;;;;;;;0.22;61.72;101698.19;4830903;28;98173;-69
2022/01/17 08:01:56;;;;;;;1999.90;999.90;;;;;;;0.21;61.58;101701.59;4831560;28;99078;-69
2022/01/17 08:04:23;;;;;;;1999.90;999.90;;;;;;;0.25;61.15;101687.97;4829224;28;97341;-70
2022/01/17 08:06:51;;;;;;;1999.90;999.90;;;;;;;0.25;61.71;101703.66;4842349;28;98936;-69
2022/01/17 08:09:20;;;;;;;1999.90;999.90;;;;;;;0.28;61.58;101713.47;4829222;28;97235;-69
2022/01/17 08:12:05;;;;;;;1999.90;999.90;;;;;;;0.23;61.80;101698.28;4831437;28;100276;-69
2022/01/17 08:14:33;;;;;;;1999.90;999.90;;;;;;;0.25;62.09;101685.34;4831373;28;97926;-69
2022/01/17 08:17:01;;;;;;;1999.90;999.90;;;;;;;0.21;61.69;101680.66;4831145;28;96835;-69
2022/01/17 08:19:29;;;;;;;1999.90;999.90;;;;;;;0.21;61.86;101649.25;4812327;28;99634;-69
2022/01/17 08:21:59;;;;;;;1999.90;999.90;;;;;;;0.19;62.27;101654.34;4831198;28;98966;-69
2022/01/17 08:24:26;;;;;;;1999.90;999.90;;;;;;;0.17;62.54;101632.38;4833081;28;98851;-69
2022/01/17 08:26:54;;;;;;;1999.90;999.90;;;;;;;0.17;63.10;101629.75;4831220;28;96882;-69
2022/01/17 08:29:25;;;;;;;1999.90;999.90;;;;;;;0.17;62.11;101637.63;4831022;28;96836;-69
2022/01/17 08:31:53;;;;;;;1999.90;999.90;;;;;;;0.20;62.32;101652.66;4830300;28;100282;-69
2022/01/17 08:34:21;;;;;;;1999.90;999.90;;;;;;;0.25;62.63;101634.72;4831689;28;97147;-69
2022/01/17 08:36:49;;;;;;;1999.90;999.90;;;;;;;0.23;62.16;101645.03;4829272;28;96870;-69
2022/01/17 08:39:17;;;;;;;1999.90;999.90;;;;;;;0.19;62.57;101636.03;4827004;28;98360;-69
2022/01/17 08:41:47;;;;;;;1999.90;999.90;;;;;;;0.22;62.87;101637.97;4829009;28;99786;-69
2022/01/17 08:44:15;;;;;;;1999.90;999.90;;;;;;;0.34;62.24;101664.22;4830480;28;97750;-69
2022/01/17 08:46:45;;;;;;;1999.90;999.90;;;;;;;0.32;62.57;101660.56;4829747;28;97666;-68
2022/01/17 08:49:13;;;;;;;1999.90;999.90;;;;;;;0.26;62.07;101653.16;4845389;28;99334;-69
2022/01/17 08:51:45;;;;;;;1999.90;999.90;;;;;;;0.27;62.46;101656.66;4835879;28;97646;-69
2022/01/17 08:54:13;;;;;;;1999.90;999.90;;;;;;;0.28;62.70;101655.91;4845594;28;98104;-69
2022/01/17 08:56:41;;;;;;;1999.90;999.90;;;;;;;0.31;62.16;101640.41;4832667;28;97631;-69
2022/01/17 08:59:08;;;;;;;1999.90;999.90;;;;;;;0.32;62.85;101631.78;4846216;28;99367;-69
2022/01/17 09:01:36;;;;;;;1999.90;999.90;;;;;;;0.32;62.34;101640.53;4834573;28;97661;-69
2022/01/17 09:04:06;;;;;;;1999.90;999.90;;;;;;;0.32;62.73;101637.00;4832650;28;97648;-69
2022/01/17 09:06:33;;;;;;;1999.90;999.90;;;;;;;0.30;63.38;101635.97;4835962;29;97270;-69
2022/01/17 09:09:01;;;;;;;1999.90;999.90;;;;;;;0.34;62.70;101635.44;4814633;29;100673;-69
2022/01/17 09:11:29;;;;;;;1999.90;999.90;;;;;;;0.38;62.81;101621.75;4834222;28;98953;-69
2022/01/17 09:13:57;;;;;;;1999.90;999.90;;;;;;;0.46;62.00;101621.53;4834136;28;96904;-69
2022/01/17 09:16:25;;;;;;;1999.90;999.90;;;;;;;0.41;62.62;101637.72;4835543;28;100040;-69
2022/01/17 09:18:53;;;;;;;1999.90;999.90;;;;;;;0.45;62.43;101665.94;4835865;28;101247;-68
2022/01/17 09:21:22;;;;;;;1999.90;999.90;;;;;;;0.44;62.54;101653.63;4845117;28;97992;-69
2022/01/17 09:23:50;;;;;;;1999.90;999.90;;;;;;;0.50;62.48;101654.09;4828475;28;97551;-67
2022/01/17 09:26:21;;;;;;;1999.90;999.90;;;;;;;0.56;61.91;101654.56;4858975;28;97283;-69
2022/01/17 09:28:49;;;;;;;1999.90;999.90;;;;;;;0.56;62.45;101650.22;4835012;28;98939;-70
2022/01/17 09:31:17;;;;;;;1999.90;999.90;;;;;;;0.61;62.05;101658.44;4834020;28;97569;-69
2022/01/17 09:33:45;;;;;;;1999.90;999.90;;;;;;;0.63;62.02;101660.34;4844504;28;96992;-69
2022/01/17 09:36:12;;;;;;;1999.90;999.90;;;;;;;0.67;62.27;101659.78;4843586;28;99162;-69
2022/01/17 09:38:42;;;;;;;1999.90;999.90;;;;;;;0.68;62.00;101665.94;4830810;28;99811;-69
2022/01/17 09:41:10;;;;;;;1999.90;999.90;;;;;;;0.70;61.95;101639.09;4833840;28;100031;-69
2022/01/17 09:43:46;;;;;;;1999.90;999.90;;;;;;;0.70;62.58;101665.28;4834675;28;98997;-69
2022/01/17 09:46:15;;;;;;;1999.90;999.90;;;;;;;0.71;61.96;101669.72;4843115;28;97029;-70
2022/01/17 09:48:47;;;;;;;1999.90;999.90;;;;;;;0.75;62.19;101681.31;4833131;28;98891;-70
2022/01/17 09:51:31;;;;;;;1999.90;999.90;;;;;;;0.77;62.23;101682.34;4832052;28;97664;-69
2022/01/17 09:54:01;;;;;;;1999.90;999.90;;;;;;;0.76;62.81;101664.78;4832012;28;97531;-69
2022/01/17 09:56:30;;;;;;;1999.90;999.90;;;;;;;0.81;62.56;101658.22;4833884;28;98767;-70
2022/01/17 09:58:58;;;;;;;1999.90;999.90;;;;;;;0.84;62.36;101653.19;4833472;28;97723;-70
2022/01/17 10:01:27;;;;;;;1999.90;999.90;;;;;;;0.80;62.71;101679.94;4833309;28;98465;-69
2022/01/17 10:03:56;;;;;;;1999.90;999.90;;;;;;;0.86;62.09;101667.31;4834493;28;96889;-69
2022/01/17 10:06:25;;;;;;;1999.90;999.90;;;;;;;0.85;62.34;101681.22;4832566;28;98470;-69
2022/01/17 10:09:12;;;;;;;1999.90;999.90;;;;;;;0.79;63.44;101680.75;4831296;28;99615;-69
2022/01/17 10:11:59;;;;;;;1999.90;999.90;;;;;;;0.81;62.83;101700.13;4833581;28;99193;-69
2022/01/17 10:14:28;;;;;;;1999.90;999.90;;;;;;;0.85;62.25;101700.44;4834750;28;96900;-69
2022/01/17 10:16:55;;;;;;;1999.90;999.90;;;;;;;0.89;62.25;101665.81;4833210;28;97713;-69
2022/01/17 10:19:25;;;;;;;1999.90;999.90;;;;;;;0.84;62.16;101693.41;4834862;28;101440;-69
2022/01/17 10:21:57;;;;;;;1999.90;999.90;;;;;;;0.84;63.15;101706.50;4831840;28;98919;-69
2022/01/17 10:24:35;;;;;;;1999.90;999.90;;;;;;;0.90;62.67;101721.78;4830553;28;97171;-69
2022/01/17 10:30:24;;;;;;;1999.90;999.90;;;;;;;0.93;62.76;101670.50;4832691;28;98445;-69
2022/01/17 10:35:38;;;;;;;1999.90;999.90;;;;;;;1.03;63.02;101693.94;4831297;28;96832;-68
2022/01/17 10:38:07;;;;;;;1999.90;999.90;;;;;;;1.03;62.57;101683.47;4833611;28;97091;-69
2022/01/17 10:40:38;;;;;;;1999.90;999.90;;;;;;;1.09;62.52;101689.16;4834412;28;96717;-69
2022/01/17 10:43:08;;;;;;;1999.90;999.90;;;;;;;1.07;63.20;101689.84;4833072;28;97656;-67
2022/01/17 10:45:42;;;;;;;1999.90;999.90;;;;;;;1.02;64.94;101686.91;4830349;28;99611;-67
2022/01/17 10:48:10;;;;;;;1999.90;999.90;;;;;;;1.06;63.22;101711.63;4832148;28;97608;-70
2022/01/17 10:50:40;;;;;;;1999.90;999.90;;;;;;;0.99;63.66;101698.88;4833930;28;99856;-69
2022/01/17 10:53:11;;;;;;;1999.90;999.90;;;;;;;1.02;63.04;101728.81;4834899;28;96860;-68
2022/01/17 10:55:42;;;;;;;1999.90;999.90;;;;;;;0.99;64.30;101749.56;4833420;28;97220;-68
2022/01/17 10:58:11;;;;;;;1999.90;999.90;;;;;;;1.00;63.61;101746.16;4857086;28;97262;-68
2022/01/17 11:00:41;;;;;;;1999.90;999.90;;;;;;;1.03;63.06;101746.34;4843664;28;99283;-68
2022/01/17 11:03:11;;;;;;;1999.90;999.90;;;;;;;1.07;64.31;101731.78;4833612;28;97615;-68
2022/01/17 11:05:40;;;;;;;1999.90;999.90;;;;;;;1.10;64.72;101737.25;4831253;28;97704;-69
2022/01/17 11:08:12;;;;;;;1999.90;999.90;;;;;;;1.10;64.99;101747.75;4831182;28;97908;-68
2022/01/17 11:10:43;;;;;;;1999.90;999.90;;;;;;;1.10;65.41;101732.91;4829103;28;99417;-68
2022/01/17 11:13:12;;;;;;;1999.90;999.90;;;;;;;1.15;64.36;101726.31;4845491;28;98705;-69